createdAt,value
2019-04-16T00:01:21.571Z,56.86
2019-04-16T00:05:30.879Z,57.28
2019-04-16T00:09:38.927Z,57.63
2019-04-16T00:13:44.284Z,58.18
2019-04-16T00:17:48.130Z,58.35
2019-04-16T00:22:02.465Z,58.57
2019-04-16T00:26:07.512Z,59.30
2019-04-16T00:30:11.653Z,59.36
2019-04-16T00:34:15.251Z,59.45
2019-04-16T00:38:22.464Z,60.11
2019-04-16T00:42:24.340Z,59.89
2019-04-16T00:46:27.935Z,60.07
2019-04-16T00:50:31.586Z,60.45
2019-04-16T00:54:35.168Z,60.85
2019-04-16T00:58:38.776Z,61.08
2019-04-16T01:02:42.798Z,61.07
2019-04-16T01:06:46.415Z,61.12
2019-04-16T01:10:50.078Z,61.22
2019-04-16T01:14:56.302Z,61.95
2019-04-16T01:18:59.093Z,61.92
2019-04-16T01:23:02.811Z,62.70
2019-04-16T01:27:06.532Z,63.20
2019-04-16T01:31:26.737Z,63.44
2019-04-16T01:35:37.511Z,63.49
2019-04-16T01:39:47.397Z,63.77
2019-04-16T01:43:48.223Z,63.76
2019-04-16T01:47:51.946Z,63.95
2019-04-16T01:51:55.551Z,63.94
2019-04-16T01:55:59.372Z,64.20
2019-04-16T02:00:06.777Z,64.49
2019-04-16T02:04:08.545Z,64.51
2019-04-16T02:08:12.069Z,65.17
2019-04-16T02:12:15.668Z,65.36
2019-04-16T02:16:19.215Z,65.26
2019-04-16T02:20:22.793Z,65.57
2019-04-16T02:24:26.415Z,65.81
2019-04-16T02:28:30.021Z,66.38
2019-04-16T02:32:33.636Z,66.52
2019-04-16T02:36:37.253Z,66.49
2019-04-16T02:40:40.867Z,66.66
2019-04-16T02:44:48.852Z,66.63
2019-04-16T02:48:51.496Z,66.69
2019-04-16T02:52:59.793Z,66.76
2019-04-16T02:57:07.916Z,66.99
2019-04-16T03:01:20.431Z,67.35
2019-04-16T03:05:22.609Z,67.40
2019-04-16T03:09:26.239Z,67.87
2019-04-16T03:13:30.046Z,68.76
2019-04-16T03:17:35.636Z,68.62
2019-04-16T03:21:39.324Z,68.15
2019-04-16T03:25:44.436Z,68.21
2019-04-16T03:29:48.392Z,68.12
2019-04-16T03:33:52.111Z,69.37
2019-04-16T03:37:55.824Z,69.64
2019-04-16T03:41:59.444Z,69.73
2019-04-16T03:46:03.293Z,69.78
2019-04-16T03:50:07.620Z,69.36
2019-04-16T03:54:11.705Z,69.44
2019-04-16T03:58:15.541Z,69.83
2019-04-16T04:02:22.178Z,69.78
2019-04-16T04:06:24.497Z,69.68
2019-04-16T04:10:30.951Z,69.97
2019-04-16T04:14:33.505Z,69.55
2019-04-16T04:18:37.081Z,69.55
2019-04-16T04:22:40.807Z,69.97
2019-04-16T04:26:44.407Z,69.79
2019-04-16T04:30:48.966Z,69.96
2019-04-16T04:34:52.676Z,70.13
2019-04-16T04:38:56.581Z,70.12
2019-04-16T04:43:00.947Z,69.99
2019-04-16T04:47:05.245Z,70.12
2019-04-16T04:51:09.147Z,69.91
2019-04-16T04:55:12.882Z,69.79
2019-04-16T04:59:16.598Z,69.64
2019-04-16T05:03:24.826Z,69.06
2019-04-16T05:07:29.350Z,68.52
2019-04-16T05:11:33.175Z,67.23
2019-04-16T05:15:36.888Z,65.96
2019-04-16T05:19:43.765Z,65.61
2019-04-16T05:23:45.957Z,66.30
2019-04-16T05:27:49.572Z,66.16
2019-04-16T05:31:54.534Z,65.53
2019-04-16T05:35:59.438Z,65.53
2019-04-16T05:40:05.192Z,64.43
2019-04-16T05:44:08.841Z,64.12
2019-04-16T05:48:12.864Z,63.59
2019-04-16T05:52:16.681Z,63.45
2019-04-16T05:56:30.630Z,63.54
2019-04-16T06:00:41.752Z,62.76
2019-04-16T06:04:43.905Z,63.13
2019-04-16T06:08:47.518Z,62.21
2019-04-16T06:12:59.855Z,62.46
2019-04-16T06:17:13.689Z,60.64
2019-04-16T06:21:31.024Z,59.53
2019-04-16T06:25:41.276Z,58.55
2019-04-16T06:29:57.588Z,55.23
2019-04-16T06:34:23.431Z,53.51
2019-04-16T06:38:42.114Z,53.01
2019-04-16T06:42:58.863Z,54.26
2019-04-16T06:47:04.081Z,51.99
2019-04-16T06:51:12.646Z,52.39
2019-04-16T06:55:34.772Z,49.93
2019-04-16T06:59:53.322Z,47.65
2019-04-16T07:03:59.880Z,48.82
2019-04-16T07:08:11.100Z,49.71
2019-04-16T07:12:16.350Z,51.09
2019-04-16T07:16:19.964Z,49.65
2019-04-16T07:20:23.579Z,48.45
2019-04-16T07:24:30.797Z,46.81
2019-04-16T07:28:34.494Z,45.92
2019-04-16T07:32:54.696Z,40.40
2019-04-16T07:37:02.487Z,35.02
2019-04-16T07:41:16.876Z,34.23
2019-04-16T07:45:20.901Z,31.85
2019-04-16T07:49:29.124Z,29.83
2019-04-16T07:53:47.457Z,28.38
2019-04-16T07:57:51.916Z,29.36
2019-04-16T08:01:55.795Z,26.68
2019-04-16T08:05:59.445Z,27.46
2019-04-16T08:10:03.440Z,25.81
2019-04-16T08:14:09.830Z,26.87
2019-04-16T08:18:12.533Z,27.89
2019-04-16T08:22:16.771Z,28.18
2019-04-16T08:26:20.496Z,27.20
2019-04-16T08:30:24.096Z,27.82
2019-04-16T08:34:27.814Z,25.71
2019-04-16T08:38:34.280Z,27.00
2019-04-16T08:42:44.484Z,25.08
2019-04-16T08:46:43.063Z,24.48
2019-04-16T08:50:49.339Z,25.56
2019-04-16T08:54:54.866Z,24.88
2019-04-16T08:59:00.901Z,24.71
2019-04-16T09:03:03.969Z,24.14
2019-04-16T09:07:12.165Z,24.75
2019-04-16T09:11:23.065Z,26.70
2019-04-16T09:15:21.869Z,28.73
2019-04-16T09:19:26.506Z,30.16
2019-04-16T09:23:30.223Z,27.03
2019-04-16T09:27:44.488Z,29.07
2019-04-16T09:31:55.085Z,29.16
2019-04-16T09:35:59.743Z,26.79
2019-04-16T09:40:16.446Z,26.09
2019-04-16T09:44:11.336Z,27.06
2019-04-16T09:48:15.105Z,26.95
2019-04-16T09:52:19.965Z,25.15
2019-04-16T09:56:29.879Z,26.73
2019-04-16T10:00:35.017Z,26.80
2019-04-16T10:04:38.619Z,26.58
2019-04-16T10:08:44.934Z,26.68
2019-04-16T10:12:47.709Z,28.03
2019-04-16T10:16:51.308Z,26.61
2019-04-16T10:20:54.916Z,28.69
2019-04-16T10:25:00.213Z,28.57
2019-04-16T10:29:06.065Z,27.52
2019-04-16T10:33:09.955Z,27.74
2019-04-16T10:37:13.675Z,27.79
2019-04-16T10:41:18.941Z,26.88
2019-04-16T10:45:30.248Z,27.74
2019-04-16T10:49:51.575Z,29.04
2019-04-16T10:54:02.745Z,29.05
2019-04-16T10:58:11.077Z,26.76
2019-04-16T11:02:32.695Z,26.34
2019-04-16T11:06:37.978Z,29.65
2019-04-16T11:10:41.855Z,29.58
2019-04-16T11:14:45.613Z,31.08
2019-04-16T11:18:49.550Z,32.98
2019-04-16T11:22:53.228Z,33.05
2019-04-16T11:26:56.842Z,32.97
2019-04-16T11:31:17.144Z,32.19
2019-04-16T11:35:23.093Z,31.75
2019-04-16T11:39:26.539Z,32.95
2019-04-16T11:43:30.377Z,30.98
2019-04-16T11:47:34.872Z,31.51
2019-04-16T11:51:38.651Z,31.70
2019-04-16T11:55:42.362Z,32.81
2019-04-16T11:59:45.952Z,31.95
2019-04-16T12:03:51.291Z,30.44
2019-04-16T12:08:08.434Z,32.08
2019-04-16T12:12:13.677Z,30.34
2019-04-16T12:16:24.394Z,33.91
2019-04-16T12:20:45.004Z,32.80
2019-04-16T12:24:52.908Z,30.21
2019-04-16T12:28:58.170Z,30.52
2019-04-16T12:33:07.465Z,32.04
2019-04-16T12:37:16.676Z,31.63
2019-04-16T12:41:39.808Z,34.35
2019-04-16T12:45:45.140Z,30.67
2019-04-16T12:49:53.265Z,33.07
2019-04-16T12:54:04.567Z,31.93
2019-04-16T12:58:10.939Z,30.76
2019-04-16T13:02:18.953Z,32.58
2019-04-16T13:06:26.933Z,32.33
2019-04-16T13:10:33.964Z,32.47
2019-04-16T13:15:00.465Z,34.23
2019-04-16T13:19:04.031Z,32.90
2019-04-16T13:23:24.334Z,31.83
2019-04-16T13:27:29.599Z,31.12
2019-04-16T13:31:33.290Z,30.75
2019-04-16T13:35:37.032Z,31.03
2019-04-16T13:39:42.378Z,31.03
2019-04-16T13:43:50.298Z,31.29
2019-04-16T13:47:56.102Z,32.48
2019-04-16T13:51:59.778Z,31.08
2019-04-16T13:56:20.895Z,31.80
2019-04-16T14:00:28.914Z,30.80
2019-04-16T14:04:32.632Z,30.27
2019-04-16T14:08:36.242Z,29.62
2019-04-16T14:12:42.512Z,33.41
2019-04-16T14:16:46.439Z,32.34
2019-04-16T14:20:50.086Z,31.84
2019-04-16T14:24:53.745Z,33.66
2019-04-16T14:28:58.635Z,30.06
2019-04-16T14:33:06.164Z,32.61
2019-04-16T14:37:07.997Z,31.48
2019-04-16T14:41:15.759Z,32.02
2019-04-16T14:45:20.371Z,31.40
2019-04-16T14:49:25.679Z,32.68
2019-04-16T14:53:31.272Z,31.98
2019-04-16T14:57:36.510Z,31.09
2019-04-16T15:01:48.162Z,31.66
2019-04-16T15:06:08.676Z,31.83
2019-04-16T15:10:23.787Z,31.99
2019-04-16T15:14:32.729Z,31.45
2019-04-16T15:18:46.809Z,31.66
2019-04-16T15:22:52.376Z,31.65
2019-04-16T15:26:57.762Z,32.09
2019-04-16T15:31:03.296Z,30.72
2019-04-16T15:35:14.081Z,32.87
2019-04-16T15:39:17.024Z,30.88
2019-04-16T15:43:38.807Z,31.04
2019-04-16T15:47:53.344Z,31.84
2019-04-16T15:52:15.014Z,32.36
2019-04-16T15:56:36.779Z,32.42
2019-04-16T16:00:49.370Z,30.71
2019-04-16T16:05:00.458Z,32.20
2019-04-16T16:09:21.486Z,31.24
2019-04-16T16:13:26.317Z,32.54
2019-04-16T16:17:31.064Z,31.86
2019-04-16T16:21:34.678Z,32.05
2019-04-16T16:25:41.442Z,33.63
2019-04-16T16:29:44.466Z,32.18
2019-04-16T16:33:48.007Z,33.20
2019-04-16T16:37:52.024Z,33.85
2019-04-16T16:41:57.458Z,33.69
2019-04-16T16:46:05.793Z,32.85
2019-04-16T16:50:12.130Z,33.14
2019-04-16T16:54:28.781Z,32.24
2019-04-16T16:58:36.723Z,32.01
2019-04-16T17:02:44.515Z,32.97
2019-04-16T17:06:48.351Z,32.54
2019-04-16T17:10:51.946Z,32.45
2019-04-16T17:14:55.881Z,33.64
2019-04-16T17:18:59.525Z,32.14
2019-04-16T17:23:03.401Z,32.53
2019-04-16T17:27:07.113Z,32.90
2019-04-16T17:31:10.918Z,34.27
2019-04-16T17:35:15.936Z,33.14
2019-04-16T17:39:36.079Z,33.69
2019-04-16T17:44:01.896Z,34.38
2019-04-16T17:48:09.112Z,34.08
2019-04-16T17:52:16.839Z,33.50
2019-04-16T17:56:38.062Z,34.40
2019-04-16T18:00:49.772Z,34.88
2019-04-16T18:04:58.187Z,34.84
2019-04-16T18:09:19.923Z,33.60
2019-04-16T18:13:37.875Z,35.05
2019-04-16T18:17:47.416Z,35.79
2019-04-16T18:21:55.955Z,35.05
2019-04-16T18:26:15.676Z,35.89
2019-04-16T18:30:27.862Z,36.10
2019-04-16T18:34:33.214Z,36.01
2019-04-16T18:38:47.477Z,36.48
2019-04-16T18:42:59.169Z,36.51
2019-04-16T18:47:16.418Z,37.15
2019-04-16T18:51:19.954Z,36.85
2019-04-16T18:55:23.743Z,36.29
2019-04-16T18:59:27.468Z,36.57
2019-04-16T19:03:31.182Z,36.61
2019-04-16T19:07:34.800Z,36.53
2019-04-16T19:11:38.611Z,37.48
2019-04-16T19:15:42.236Z,36.84
2019-04-16T19:19:45.938Z,37.40
2019-04-16T19:23:49.656Z,36.75
2019-04-16T19:27:53.269Z,37.64
2019-04-16T19:31:57.556Z,37.49
2019-04-16T19:36:01.164Z,36.91
2019-04-16T19:40:05.340Z,36.66
2019-04-16T19:44:11.917Z,37.24
2019-04-16T19:48:17.939Z,37.75
2019-04-16T19:52:21.102Z,37.75
2019-04-16T19:56:24.710Z,37.62
2019-04-16T20:00:28.269Z,37.33
2019-04-16T20:04:32.042Z,37.56
2019-04-16T20:08:39.868Z,37.83
2019-04-16T20:12:41.115Z,37.81
2019-04-16T20:16:44.730Z,37.81
2019-04-16T20:20:50.188Z,37.68
2019-04-16T20:24:53.801Z,37.81
2019-04-16T20:28:57.499Z,37.51
2019-04-16T20:33:01.504Z,38.11
2019-04-16T20:37:05.255Z,38.26
2019-04-16T20:41:08.865Z,38.30
2019-04-16T20:45:12.786Z,38.26
2019-04-16T20:49:18.412Z,38.73
2019-04-16T20:53:21.756Z,38.71
2019-04-16T20:57:26.411Z,38.42
2019-04-16T21:01:35.184Z,38.77
2019-04-16T21:05:36.680Z,38.98
2019-04-16T21:09:40.411Z,39.38
2019-04-16T21:13:44.054Z,39.57
2019-04-16T21:17:49.687Z,39.98
2019-04-16T21:21:56.513Z,40.69
2019-04-16T21:25:58.643Z,41.42
2019-04-16T21:30:03.862Z,40.46
2019-04-16T21:34:09.262Z,40.39
2019-04-16T21:38:14.513Z,40.80
2019-04-16T21:42:18.128Z,40.19
2019-04-16T21:46:21.741Z,39.49
2019-04-16T21:50:25.459Z,39.83
2019-04-16T21:54:30.502Z,40.21
2019-04-16T21:58:34.739Z,40.36
2019-04-16T22:02:39.987Z,40.10
2019-04-16T22:06:43.702Z,40.11
2019-04-16T22:10:47.421Z,41.12
2019-04-16T22:14:54.416Z,41.12
2019-04-16T22:18:56.595Z,40.34
2019-04-16T22:23:00.753Z,40.73
2019-04-16T22:27:06.963Z,41.77
2019-04-16T22:31:09.893Z,41.75
2019-04-16T22:35:13.723Z,42.62
2019-04-16T22:39:18.966Z,42.21
2019-04-16T22:43:29.742Z,42.16
2019-04-16T22:47:35.004Z,42.01
2019-04-16T22:51:39.826Z,42.35
2019-04-16T22:55:44.065Z,42.32
2019-04-16T22:59:47.653Z,42.79
2019-04-16T23:03:53.374Z,41.98
2019-04-16T23:07:56.853Z,43.03
2019-04-16T23:12:00.801Z,42.82
2019-04-16T23:16:04.674Z,43.49
2019-04-16T23:20:09.535Z,43.95
2019-04-16T23:24:13.177Z,44.60
2019-04-16T23:28:16.868Z,44.44
2019-04-16T23:32:20.481Z,45.03
2019-04-16T23:36:24.097Z,44.30
2019-04-16T23:40:27.680Z,44.60
2019-04-16T23:44:47.713Z,44.73
2019-04-16T23:49:02.091Z,44.94
2019-04-16T23:53:08.974Z,46.24
2019-04-16T23:57:16.882Z,45.70
